Shokyu Maru — JG5288 — position and weather

sailwx.info

Track history (hours):
 
Tides and Currents Weather Stations Pressure Air Temp Water Temp Dewpoint Dewpoint Depression Visibility Wind Speed Wind Dir Waves Ship Positions

Shokyu Maru

Last reported at 2018-May-22 17:06 UTC. Time now 2018-May-22 17:38 UTC.
Position N 35°35' E 139°55'.

Length 91 m; draft 4.7 m.

Type: Tanker. MMSI: 431000253.

Date/timePositionNaut miles runAvg speedWind from/ knotsBaromVisibWave heightAir tempDewpointWater temp
2018-May-22 17:06N 35°35' E 139°55'0 0.0
2018-May-22 16:57N 35°35' E 139°55'0 0.0
2018-May-22 16:27N 35°35' E 139°55'0 0.0
2018-May-22 15:57N 35°35' E 139°55'0 0.0
2018-May-22 15:30N 35°35' E 139°55'0 0.1
2018-May-22 14:54N 35°35' E 139°55'3 5.8
2018-May-22 14:22N 35°32' E 139°57'410.4
2018-May-22 14:01N 35°29' E 139°60'1 0.1
2018-May-22 07:17N 35°29' E 140°01'2 7.7
2018-May-22 07:00N 35°30' E 139°59'610.1
2018-May-22 06:27N 35°36' E 139°59'5 0.7
2018-May-22 00:16N 35°40' E 139°57'2 4.9
2018-May-21 23:46N 35°38' E 139°59'310.4
2018-May-21 23:30N 35°36' E 139°56'1 2.5
2018-May-21 22:55N 35°35' E 139°55'0 0.0
2018-May-21 22:25N 35°35' E 139°55'0 0.0
2018-May-21 21:52N 35°35' E 139°55'0 0.0
2018-May-21 21:28N 35°35' E 139°55'0 0.0
2018-May-21 20:58N 35°35' E 139°55'0 0.0
2018-May-21 17:49N 35°35' E 139°55'0 0.0
2018-May-21 17:19N 35°35' E 139°55'0 0.0
2018-May-21 16:55N 35°35' E 139°55'0 0.0
2018-May-21 13:19N 35°35' E 139°55'2 4.8
2018-May-21 12:59N 35°34' E 139°54'511.0
2018-May-21 12:30N 35°30' E 139°49'611.2
2018-May-21 12:00N 35°26' E 139°45'4 8.8
2018-May-21 11:31N 35°24' E 139°40'0 0.6
2018-May-21 10:58N 35°24' E 139°40'0 0.0
2018-May-21 10:28N 35°24' E 139°40'0 0.0
2018-May-21 09:58N 35°24' E 139°40'0 0.0
2018-May-21 09:28N 35°24' E 139°40'0 0.0
2018-May-21 08:58N 35°24' E 139°40'0 0.0
2018-May-21 08:28N 35°24' E 139°40'0 0.0
2018-May-21 07:58N 35°24' E 139°40'0 0.0
2018-May-21 07:28N 35°24' E 139°40'0 0.0
2018-May-21 06:58N 35°24' E 139°40'0 0.0
2018-May-21 06:28N 35°24' E 139°40'0 0.0
2018-May-21 05:58N 35°24' E 139°40'0 0.0
2018-May-21 05:28N 35°24' E 139°40'0 0.0
2018-May-21 04:58N 35°24' E 139°40'0 0.0
2018-May-21 04:28N 35°24' E 139°40'0 0.8
2018-May-21 04:00N 35°24' E 139°39'2 4.6
2018-May-21 03:30N 35°24' E 139°42'4 7.8
2018-May-21 03:00N 35°26' E 139°46'4 8.0
2018-May-21 02:30N 35°29' E 139°50'4 7.9
2018-May-21 02:00N 35°32' E 139°53'4 7.8
2018-May-21 01:29N 35°35' E 139°56'4 8.6
2018-May-21 00:59N 35°39' E 139°58'1 0.3
2018-May-20 21:20N 35°38' E 139°58'310.0
2018-May-20 20:59N 35°36' E 139°55'0 0.3
2018-May-20 20:11N 35°35' E 139°55'0 0.0
2018-May-20 19:59N 35°35' E 139°55'0 0.0
2018-May-20 19:29N 35°35' E 139°55'0 0.0
2018-May-20 18:53N 35°35' E 139°55'0 0.0
2018-May-20 16:11N 35°35' E 139°55'0 0.1
2018-May-20 15:50N 35°35' E 139°55'0 0.1
2018-May-20 15:29N 35°35' E 139°55'0 0.0
2018-May-20 14:59N 35°35' E 139°55'0 0.1
2018-May-20 13:59N 35°35' E 139°55'0 0.0
2018-May-20 12:05N 35°35' E 139°55'0 0.2
2018-May-20 12:00N 35°35' E 139°55'4 8.1
2018-May-20 11:30N 35°32' E 139°52'510.7
2018-May-20 11:00N 35°28' E 139°47'510.3
2018-May-20 10:30N 35°25' E 139°43'3 5.3
2018-May-20 10:00N 35°24' E 139°39'0 0.1
2018-May-20 09:28N 35°24' E 139°40'0 0.0
2018-May-20 08:58N 35°24' E 139°40'0 0.0
2018-May-20 08:28N 35°24' E 139°40'0 0.0
2018-May-20 07:58N 35°24' E 139°40'0 0.0
2018-May-20 07:28N 35°24' E 139°40'0 0.0
2018-May-20 06:58N 35°24' E 139°40'0 0.2
2018-May-20 06:28N 35°24' E 139°39'2 4.3
2018-May-20 06:00N 35°24' E 139°42'511.0
2018-May-20 05:31N 35°27' E 139°47'2 4.4
2018-May-20 04:58N 35°29' E 139°49'0 0.0
2018-May-20 04:28N 35°29' E 139°49'0 0.0
2018-May-20 03:58N 35°29' E 139°49'0 0.0
2018-May-20 03:31N 35°29' E 139°49'0 0.0
2018-May-20 03:00N 35°29' E 139°49'0 0.0
2018-May-20 02:30N 35°29' E 139°49'0 0.0
2018-May-20 02:00N 35°29' E 139°49'0 0.0
2018-May-20 01:30N 35°29' E 139°49'0 0.0
2018-May-20 01:00N 35°29' E 139°49'0 0.0
2018-May-20 00:31N 35°29' E 139°49'0 0.0
2018-May-19 23:59N 35°29' E 139°49'0 0.0
2018-May-19 23:30N 35°29' E 139°49'0 0.0
2018-May-19 23:00N 35°29' E 139°49'0 0.0
2018-May-19 22:30N 35°29' E 139°49'0 0.0
2018-May-19 22:01N 35°29' E 139°49'0 0.0
2018-May-19 21:30N 35°29' E 139°49'0 0.0
2018-May-19 21:00N 35°29' E 139°49'0 0.0
2018-May-19 20:31N 35°29' E 139°49'0 0.0
2018-May-19 20:00N 35°29' E 139°49'0 0.0
2018-May-19 19:29N 35°29' E 139°49'0 0.0
2018-May-19 19:00N 35°29' E 139°49'0 0.0
2018-May-19 18:31N 35°29' E 139°49'0 0.1
2018-May-19 18:00N 35°29' E 139°49'0 0.0
2018-May-19 17:31N 35°29' E 139°49'0 0.0
2018-May-19 17:01N 35°29' E 139°49'0 0.0
2018-May-19 16:30N 35°29' E 139°49'0 0.0
2018-May-19 16:00N 35°29' E 139°49'0 0.0
2018-May-19 15:28N 35°29' E 139°49'0 0.0
2018-May-19 15:00N 35°29' E 139°49'0 0.0
2018-May-19 14:31N 35°29' E 139°49'0 0.0
2018-May-19 14:00N 35°29' E 139°49'0 0.0
2018-May-19 13:30N 35°29' E 139°49'0 0.1
2018-May-19 13:00N 35°29' E 139°49'0 0.1
2018-May-19 12:31N 35°29' E 139°49'0 0.0
2018-May-19 12:00N 35°29' E 139°49'0 0.0
2018-May-19 11:30N 35°29' E 139°49'0 0.0
2018-May-19 11:00N 35°29' E 139°49'0 0.0
2018-May-19 10:31N 35°29' E 139°49'0 0.0
2018-May-19 10:00N 35°29' E 139°49'0 0.0
2018-May-19 09:31N 35°29' E 139°49'0 0.0
2018-May-19 09:00N 35°29' E 139°49'0 0.0
2018-May-19 08:29N 35°29' E 139°49'0 0.0
2018-May-19 08:00N 35°29' E 139°49'0 0.0
2018-May-19 07:30N 35°29' E 139°49'0 0.0
2018-May-19 07:01N 35°29' E 139°49'0 0.0
2018-May-19 06:30N 35°29' E 139°49'0 0.0
2018-May-19 06:00N 35°29' E 139°49'0 0.1
2018-May-19 05:30N 35°29' E 139°49'0 0.1
2018-May-19 05:01N 35°29' E 139°49'5 9.0
2018-May-19 04:29N 35°34' E 139°51'510.4
2018-May-19 04:01N 35°37' E 139°56'2 0.4
2018-May-18 21:23N 35°38' E 139°58'4 9.7
2018-May-18 20:59N 35°35' E 139°55'0 0.0
2018-May-18 14:49N 35°35' E 139°55'0 0.1
2018-May-18 14:29N 35°35' E 139°55'3 6.7
2018-May-18 14:00N 35°33' E 139°58'5 1.0
2018-May-18 09:12N 35°30' E 140°02'1 6.5
2018-May-18 09:00N 35°30' E 140°01'1 2.4
2018-May-18 08:30N 35°31' E 139°60'0 0.9
2018-May-18 07:59N 35°32' E 139°59'0 0.0
2018-May-18 07:29N 35°32' E 139°59'0 0.0
2018-May-18 06:56N 35°32' E 139°59'0 0.0
2018-May-18 06:26N 35°32' E 139°59'0 0.0
2018-May-18 05:59N 35°32' E 139°59'0 0.0
2018-May-18 05:29N 35°32' E 139°59'0 0.0
2018-May-18 04:56N 35°32' E 139°59'2 4.1
2018-May-18 04:30N 35°33' E 139°59'610.0
2018-May-18 03:52N 35°40' E 139°57'2 0.4
2018-May-17 22:53N 35°38' E 139°58'4 9.4
2018-May-17 22:30N 35°35' E 139°55'1 0.8
2018-May-17 21:50N 35°35' E 139°55'0 0.0
2018-May-17 21:29N 35°35' E 139°55'0 0.0
2018-May-17 20:59N 35°35' E 139°55'0 0.0
2018-May-17 20:26N 35°35' E 139°55'0 0.0
2018-May-17 19:47N 35°35' E 139°55'0 0.0
2018-May-17 19:29N 35°35' E 139°55'0 0.0
2018-May-17 18:59N 35°35' E 139°55'0 0.0
2018-May-17 18:29N 35°35' E 139°55'0 0.0
2018-May-17 17:50N 35°35' E 139°55'0 0.0
2018-May-17 17:29N 35°35' E 139°55'0 0.1
2018-May-17 16:41N 35°35' E 139°55'0 0.0
2018-May-17 16:29N 35°35' E 139°55'0 0.0
2018-May-17 15:53N 35°35' E 139°55'0 0.0
2018-May-17 15:29N 35°35' E 139°55'0 0.0
2018-May-17 13:17N 35°35' E 139°55'1 4.2
2018-May-17 13:00N 35°34' E 139°56'610.4
2018-May-17 12:26N 35°30' E 140°01'0 0.0
2018-May-17 08:18N 35°30' E 140°01'2 4.9
2018-May-17 07:57N 35°31' E 139°60'0 0.4
2018-May-17 07:12N 35°31' E 139°60'0 0.0
2018-May-17 06:54N 35°31' E 139°60'0 0.3
2018-May-17 06:30N 35°31' E 139°60'3 6.5
2018-May-17 06:00N 35°32' E 139°56'4 8.9
2018-May-17 05:30N 35°36' E 139°57'2 0.5
2018-May-17 00:47N 35°38' E 139°58'3 9.5
2018-May-17 00:30N 35°36' E 139°56'1 2.7
2018-May-17 00:00N 35°35' E 139°55'0 0.0
2018-May-16 23:30N 35°35' E 139°55'0 0.0
2018-May-16 23:00N 35°35' E 139°55'0 0.0
2018-May-16 22:27N 35°35' E 139°55'0 0.0
2018-May-16 22:00N 35°35' E 139°55'0 0.0
2018-May-16 21:30N 35°35' E 139°55'0 0.0
2018-May-16 20:54N 35°35' E 139°55'0 0.0
2018-May-16 20:30N 35°35' E 139°55'0 0.0
2018-May-16 20:00N 35°35' E 139°55'0 0.0
2018-May-16 19:30N 35°35' E 139°55'0 0.0
2018-May-16 19:00N 35°35' E 139°55'0 0.0
2018-May-16 18:30N 35°35' E 139°55'0 0.0
2018-May-16 18:00N 35°35' E 139°55'0 0.0
2018-May-16 17:30N 35°35' E 139°55'0 0.0
2018-May-16 16:57N 35°35' E 139°55'0 0.0
2018-May-16 16:30N 35°35' E 139°55'0 0.0
2018-May-16 16:00N 35°35' E 139°55'0 0.0
2018-May-16 15:30N 35°35' E 139°55'0 0.0
2018-May-16 14:57N 35°35' E 139°55'0 0.0
2018-May-16 14:30N 35°35' E 139°55'0 0.0
2018-May-16 13:54N 35°35' E 139°55'0 0.0
2018-May-16 13:27N 35°35' E 139°55'3 5.0
2018-May-16 12:51N 35°33' E 139°56'410.8
2018-May-16 12:29N 35°30' E 139°60'1 0.2
2018-May-16 06:16N 35°29' E 140°01'1 4.6
2018-May-16 06:00N 35°29' E 139°60'4 7.6
2018-May-16 05:31N 35°29' E 139°55'1 2.7
2018-May-16 05:00N 35°30' E 139°56'4 6.9
2018-May-16 04:27N 35°31' E 140°01'2 3.2
2018-May-16 03:59N 35°31' E 140°03'0 0.0
2018-May-16 02:35N 35°31' E 140°03'0 0.0
2018-May-16 02:29N 35°31' E 140°03'0 0.0
2018-May-15 20:59N 35°31' E 140°02'4 6.6
2018-May-15 20:26N 35°31' E 139°58'3 5.7
2018-May-15 19:58N 35°30' E 139°55'0 0.0
2018-May-15 19:28N 35°30' E 139°55'0 0.0
2018-May-15 18:58N 35°30' E 139°55'0 0.0
2018-May-15 18:22N 35°30' E 139°55'0 0.0
2018-May-15 17:58N 35°30' E 139°55'0 0.0
2018-May-15 17:28N 35°30' E 139°55'0 0.0
2018-May-15 16:52N 35°30' E 139°55'0 0.0
2018-May-15 16:28N 35°30' E 139°55'0 0.0
2018-May-15 15:58N 35°30' E 139°55'0 0.0
2018-May-15 15:28N 35°30' E 139°55'0 0.0
2018-May-15 14:55N 35°30' E 139°55'0 0.0
2018-May-15 14:25N 35°30' E 139°55'0 0.0
2018-May-15 13:58N 35°30' E 139°55'0 0.0
2018-May-15 13:19N 35°30' E 139°55'0 0.0
2018-May-15 12:58N 35°30' E 139°55'0 0.0
2018-May-15 12:28N 35°30' E 139°55'0 0.0
2018-May-15 11:58N 35°30' E 139°55'0 0.0
2018-May-15 11:28N 35°30' E 139°55'0 0.1
2018-May-15 10:58N 35°30' E 139°55'0 0.0
2018-May-15 10:22N 35°30' E 139°55'0 0.0
2018-May-15 09:55N 35°30' E 139°55'0 0.0
2018-May-15 09:28N 35°30' E 139°55'0 0.0
2018-May-15 08:55N 35°30' E 139°55'0 0.0
2018-May-15 08:25N 35°30' E 139°55'0 0.0
2018-May-15 07:55N 35°30' E 139°55'0 0.0
2018-May-15 07:28N 35°30' E 139°55'0 0.0
2018-May-15 06:58N 35°30' E 139°55'0 0.0
2018-May-15 06:28N 35°30' E 139°55'0 0.1
2018-May-15 05:55N 35°30' E 139°55'0 0.0
2018-May-15 05:25N 35°30' E 139°55'0 0.0
2018-May-15 04:58N 35°30' E 139°55'0 0.0
2018-May-15 04:28N 35°30' E 139°55'0 0.0
2018-May-15 03:58N 35°30' E 139°55'0 0.0
2018-May-15 03:25N 35°30' E 139°55'0 0.0
2018-May-15 02:58N 35°30' E 139°55'0 0.0
2018-May-15 02:28N 35°30' E 139°55'0 0.1
2018-May-15 01:55N 35°30' E 139°55'0 0.0
2018-May-15 01:28N 35°30' E 139°55'0 0.1
2018-May-15 00:58N 35°30' E 139°55'0 0.1
2018-May-15 00:30N 35°30' E 139°55'4 8.6
2018-May-15 00:00N 35°31' E 139°60'2 4.4
2018-May-14 23:30N 35°31' E 140°03'0 0.0
2018-May-14 22:58N 35°31' E 140°03'0 0.0
2018-May-14 22:28N 35°31' E 140°03'0 0.0
2018-May-14 21:58N 35°31' E 140°03'0 0.0
2018-May-14 21:25N 35°31' E 140°03'0 0.0
2018-May-14 20:58N 35°31' E 140°03'0 0.0
2018-May-14 20:28N 35°31' E 140°03'0 0.0
2018-May-14 19:58N 35°31' E 140°03'0 0.0
2018-May-14 19:28N 35°31' E 140°03'0 0.0
2018-May-14 18:58N 35°31' E 140°03'0 0.0
2018-May-14 18:28N 35°31' E 140°03'0 0.0
2018-May-14 17:49N 35°31' E 140°03'0 0.0
2018-May-14 17:28N 35°31' E 140°03'0 0.0
2018-May-14 16:58N 35°31' E 140°03'0 0.0
2018-May-14 16:25N 35°31' E 140°03'0 0.0
2018-May-14 15:58N 35°31' E 140°03'0 0.0
2018-May-14 15:28N 35°31' E 140°03'0 0.0
2018-May-14 14:58N 35°31' E 140°03'0 0.0
2018-May-14 14:28N 35°31' E 140°03'0 0.0
2018-May-14 13:58N 35°31' E 140°03'0 0.0
2018-May-14 13:28N 35°31' E 140°03'0 0.0
2018-May-14 12:58N 35°31' E 140°03'0 0.0
2018-May-14 12:28N 35°31' E 140°03'0 0.0
2018-May-14 11:55N 35°31' E 140°03'0 0.0
2018-May-14 11:28N 35°31' E 140°03'0 0.0
2018-May-14 10:58N 35°31' E 140°03'0 0.0
2018-May-14 10:28N 35°31' E 140°03'0 0.0
2018-May-14 09:58N 35°31' E 140°03'0 0.0
2018-May-14 09:28N 35°31' E 140°03'0 0.0
2018-May-14 08:58N 35°31' E 140°03'0 0.0
2018-May-14 08:25N 35°31' E 140°03'0 0.0
2018-May-14 07:58N 35°31' E 140°03'0 0.0
2018-May-14 07:28N 35°31' E 140°03'0 0.0
2018-May-14 06:55N 35°31' E 140°03'0 0.9
2018-May-14 06:30N 35°31' E 140°02'4 8.2
2018-May-14 06:00N 35°31' E 139°57'2 3.3
2018-May-14 05:27N 35°30' E 139°55'0 0.1
2018-May-14 05:00N 35°30' E 139°55'0 0.0
2018-May-14 04:21N 35°30' E 139°55'0 0.0
2018-May-14 04:00N 35°30' E 139°55'0 0.0
2018-May-14 03:27N 35°30' E 139°55'0 0.0
2018-May-14 02:51N 35°30' E 139°55'0 0.1
2018-May-14 02:27N 35°30' E 139°55'1 2.1
2018-May-14 02:00N 35°31' E 139°56'611.3
2018-May-14 01:30N 35°36' E 139°58'4 6.8
2018-May-14 00:51N 35°41' E 139°56'0 0.0
2018-May-14 00:21N 35°41' E 139°56'0 0.0
2018-May-13 23:45N 35°41' E 139°56'0 0.0
2018-May-13 23:21N 35°41' E 139°56'0 0.0
2018-May-13 22:57N 35°41' E 139°56'0 0.0
2018-May-13 22:27N 35°41' E 139°56'0 0.0
2018-May-13 21:58N 35°41' E 139°56'2 4.6
2018-May-13 21:30N 35°39' E 139°58'4 8.1
2018-May-13 21:00N 35°36' E 139°55'0 0.2
2018-May-13 20:26N 35°35' E 139°55'0 0.0
2018-May-13 19:59N 35°35' E 139°55'0 0.0
2018-May-13 19:26N 35°35' E 139°55'0 0.0
2018-May-13 18:53N 35°35' E 139°55'0 0.1
2018-May-13 18:08N 35°35' E 139°55'0 0.0
2018-May-13 17:59N 35°35' E 139°55'0 0.1
2018-May-13 17:26N 35°35' E 139°55'0 0.0
2018-May-13 16:56N 35°35' E 139°55'0 0.0
2018-May-13 16:24N 35°35' E 139°55'0 0.0
2018-May-13 15:59N 35°35' E 139°55'0 0.0
2018-May-13 15:23N 35°35' E 139°55'0 0.1
2018-May-13 14:59N 35°35' E 139°55'0 0.0
2018-May-13 14:29N 35°35' E 139°55'0 0.2
2018-May-13 13:59N 35°35' E 139°55'0 0.1
2018-May-13 13:29N 35°35' E 139°55'0 0.0
2018-May-13 12:59N 35°35' E 139°55'0 0.0
2018-May-13 12:30N 35°35' E 139°55'0 0.0
2018-May-13 11:53N 35°35' E 139°55'0 0.1
2018-May-13 11:29N 35°35' E 139°55'0 0.1
2018-May-13 10:59N 35°35' E 139°55'0 0.0
2018-May-13 10:29N 35°35' E 139°55'0 0.1
2018-May-13 10:00N 35°35' E 139°55'3 6.5
2018-May-13 09:30N 35°33' E 139°58'4 8.6
2018-May-13 09:01N 35°31' E 140°02'0 0.1
2018-May-13 08:31N 35°31' E 140°02'0 0.0
2018-May-13 07:55N 35°31' E 140°02'0 0.0
2018-May-13 07:31N 35°31' E 140°02'0 0.0
2018-May-13 06:58N 35°31' E 140°02'0 0.0
2018-May-13 06:25N 35°31' E 140°02'0 0.0
2018-May-13 05:55N 35°31' E 140°02'0 0.0
2018-May-13 05:31N 35°31' E 140°02'0 0.1
2018-May-13 04:55N 35°31' E 140°03'1 3.1
2018-May-13 04:31N 35°32' E 140°02'0 0.2
2018-May-13 04:00N 35°32' E 140°02'0 0.0
2018-May-13 03:30N 35°32' E 140°02'0 0.0
2018-May-13 03:00N 35°32' E 140°02'0 0.0
2018-May-13 02:30N 35°32' E 140°02'0 0.0
2018-May-13 02:00N 35°32' E 140°02'0 0.0
2018-May-13 01:30N 35°32' E 140°02'0 0.0
2018-May-13 00:57N 35°32' E 140°02'2 4.6
2018-May-13 00:30N 35°33' E 139°60'5 9.0
2018-May-13 00:00N 35°38' E 139°59'3 5.3
2018-May-12 23:25N 35°41' E 139°59'0 0.0
2018-May-12 22:55N 35°41' E 139°59'0 0.0
2018-May-12 22:22N 35°41' E 139°59'0 0.0
2018-May-12 21:52N 35°41' E 139°59'0 0.0
2018-May-12 21:16N 35°41' E 139°59'0 0.0
2018-May-12 20:34N 35°41' E 139°59'0 0.0
2018-May-12 20:07N 35°41' E 139°59'0 0.0
2018-May-12 19:58N 35°41' E 139°59'0 0.0
2018-May-12 18:49N 35°41' E 139°59'0 0.0
2018-May-12 18:25N 35°41' E 139°59'0 0.0
2018-May-12 17:49N 35°41' E 139°59'0 0.0
2018-May-12 17:25N 35°41' E 139°59'  
Track history (hours):
 
Tides and Currents Weather Stations Pressure Air Temp Water Temp Dewpoint Dewpoint Depression Visibility Wind Speed Wind Dir Waves Ship Positions

Shokyu Maru

Last reported at 2018-May-22 17:06 UTC. Time now 2018-May-22 17:38 UTC.
Position N 35°35' E 139°55'.

Length 91 m; draft 4.7 m.

Type: Tanker. MMSI: 431000253.

Date/timePositionNaut miles runAvg speedWind from/ knotsBaromVisibWave heightAir tempDewpointWater temp
2018-May-22 17:06N 35°35' E 139°55'0 0.0
2018-May-22 16:57N 35°35' E 139°55'0 0.0
2018-May-22 16:27N 35°35' E 139°55'0 0.0
2018-May-22 15:57N 35°35' E 139°55'0 0.0
2018-May-22 15:30N 35°35' E 139°55'0 0.1
2018-May-22 14:54N 35°35' E 139°55'3 5.8
2018-May-22 14:22N 35°32' E 139°57'410.4
2018-May-22 14:01N 35°29' E 139°60'1 0.1
2018-May-22 07:17N 35°29' E 140°01'2 7.7
2018-May-22 07:00N 35°30' E 139°59'610.1
2018-May-22 06:27N 35°36' E 139°59'5 0.7
2018-May-22 00:16N 35°40' E 139°57'2 4.9
2018-May-21 23:46N 35°38' E 139°59'310.4
2018-May-21 23:30N 35°36' E 139°56'1 2.5
2018-May-21 22:55N 35°35' E 139°55'0 0.0
2018-May-21 22:25N 35°35' E 139°55'0 0.0
2018-May-21 21:52N 35°35' E 139°55'0 0.0
2018-May-21 21:28N 35°35' E 139°55'0 0.0
2018-May-21 20:58N 35°35' E 139°55'0 0.0
2018-May-21 17:49N 35°35' E 139°55'0 0.0
2018-May-21 17:19N 35°35' E 139°55'0 0.0
2018-May-21 16:55N 35°35' E 139°55'0 0.0
2018-May-21 13:19N 35°35' E 139°55'2 4.8
2018-May-21 12:59N 35°34' E 139°54'511.0
2018-May-21 12:30N 35°30' E 139°49'611.2
2018-May-21 12:00N 35°26' E 139°45'4 8.8
2018-May-21 11:31N 35°24' E 139°40'0 0.6
2018-May-21 10:58N 35°24' E 139°40'0 0.0
2018-May-21 10:28N 35°24' E 139°40'0 0.0
2018-May-21 09:58N 35°24' E 139°40'0 0.0
2018-May-21 09:28N 35°24' E 139°40'0 0.0
2018-May-21 08:58N 35°24' E 139°40'0 0.0
2018-May-21 08:28N 35°24' E 139°40'0 0.0
2018-May-21 07:58N 35°24' E 139°40'0 0.0
2018-May-21 07:28N 35°24' E 139°40'0 0.0
2018-May-21 06:58N 35°24' E 139°40'0 0.0
2018-May-21 06:28N 35°24' E 139°40'0 0.0
2018-May-21 05:58N 35°24' E 139°40'0 0.0
2018-May-21 05:28N 35°24' E 139°40'0 0.0
2018-May-21 04:58N 35°24' E 139°40'0 0.0
2018-May-21 04:28N 35°24' E 139°40'0 0.8
2018-May-21 04:00N 35°24' E 139°39'2 4.6
2018-May-21 03:30N 35°24' E 139°42'4 7.8
2018-May-21 03:00N 35°26' E 139°46'4 8.0
2018-May-21 02:30N 35°29' E 139°50'4 7.9
2018-May-21 02:00N 35°32' E 139°53'4 7.8
2018-May-21 01:29N 35°35' E 139°56'4 8.6
2018-May-21 00:59N 35°39' E 139°58'1 0.3
2018-May-20 21:20N 35°38' E 139°58'310.0
2018-May-20 20:59N 35°36' E 139°55'0 0.3
2018-May-20 20:11N 35°35' E 139°55'0 0.0
2018-May-20 19:59N 35°35' E 139°55'0 0.0
2018-May-20 19:29N 35°35' E 139°55'0 0.0
2018-May-20 18:53N 35°35' E 139°55'0 0.0
2018-May-20 16:11N 35°35' E 139°55'0 0.1
2018-May-20 15:50N 35°35' E 139°55'0 0.1
2018-May-20 15:29N 35°35' E 139°55'0 0.0
2018-May-20 14:59N 35°35' E 139°55'0 0.1
2018-May-20 13:59N 35°35' E 139°55'0 0.0
2018-May-20 12:05N 35°35' E 139°55'0 0.2
2018-May-20 12:00N 35°35' E 139°55'4 8.1
2018-May-20 11:30N 35°32' E 139°52'510.7
2018-May-20 11:00N 35°28' E 139°47'510.3
2018-May-20 10:30N 35°25' E 139°43'3 5.3
2018-May-20 10:00N 35°24' E 139°39'0 0.1
2018-May-20 09:28N 35°24' E 139°40'0 0.0
2018-May-20 08:58N 35°24' E 139°40'0 0.0
2018-May-20 08:28N 35°24' E 139°40'0 0.0
2018-May-20 07:58N 35°24' E 139°40'0 0.0
2018-May-20 07:28N 35°24' E 139°40'0 0.0
2018-May-20 06:58N 35°24' E 139°40'0 0.2
2018-May-20 06:28N 35°24' E 139°39'2 4.3
2018-May-20 06:00N 35°24' E 139°42'511.0
2018-May-20 05:31N 35°27' E 139°47'2 4.4
2018-May-20 04:58N 35°29' E 139°49'0 0.0
2018-May-20 04:28N 35°29' E 139°49'0 0.0
2018-May-20 03:58N 35°29' E 139°49'0 0.0
2018-May-20 03:31N 35°29' E 139°49'0 0.0
2018-May-20 03:00N 35°29' E 139°49'0 0.0
2018-May-20 02:30N 35°29' E 139°49'0 0.0
2018-May-20 02:00N 35°29' E 139°49'0 0.0
2018-May-20 01:30N 35°29' E 139°49'0 0.0
2018-May-20 01:00N 35°29' E 139°49'0 0.0
2018-May-20 00:31N 35°29' E 139°49'0 0.0
2018-May-19 23:59N 35°29' E 139°49'0 0.0
2018-May-19 23:30N 35°29' E 139°49'0 0.0
2018-May-19 23:00N 35°29' E 139°49'0 0.0
2018-May-19 22:30N 35°29' E 139°49'0 0.0
2018-May-19 22:01N 35°29' E 139°49'0 0.0
2018-May-19 21:30N 35°29' E 139°49'0 0.0
2018-May-19 21:00N 35°29' E 139°49'0 0.0
2018-May-19 20:31N 35°29' E 139°49'0 0.0
2018-May-19 20:00N 35°29' E 139°49'0 0.0
2018-May-19 19:29N 35°29' E 139°49'0 0.0
2018-May-19 19:00N 35°29' E 139°49'0 0.0
2018-May-19 18:31N 35°29' E 139°49'0 0.1
2018-May-19 18:00N 35°29' E 139°49'0 0.0
2018-May-19 17:31N 35°29' E 139°49'0 0.0
2018-May-19 17:01N 35°29' E 139°49'0 0.0
2018-May-19 16:30N 35°29' E 139°49'0 0.0
2018-May-19 16:00N 35°29' E 139°49'0 0.0
2018-May-19 15:28N 35°29' E 139°49'0 0.0
2018-May-19 15:00N 35°29' E 139°49'0 0.0
2018-May-19 14:31N 35°29' E 139°49'0 0.0
2018-May-19 14:00N 35°29' E 139°49'0 0.0
2018-May-19 13:30N 35°29' E 139°49'0 0.1
2018-May-19 13:00N 35°29' E 139°49'0 0.1
2018-May-19 12:31N 35°29' E 139°49'0 0.0
2018-May-19 12:00N 35°29' E 139°49'0 0.0
2018-May-19 11:30N 35°29' E 139°49'0 0.0
2018-May-19 11:00N 35°29' E 139°49'0 0.0
2018-May-19 10:31N 35°29' E 139°49'0 0.0
2018-May-19 10:00N 35°29' E 139°49'0 0.0
2018-May-19 09:31N 35°29' E 139°49'0 0.0
2018-May-19 09:00N 35°29' E 139°49'0 0.0
2018-May-19 08:29N 35°29' E 139°49'0 0.0
2018-May-19 08:00N 35°29' E 139°49'0 0.0
2018-May-19 07:30N 35°29' E 139°49'0 0.0
2018-May-19 07:01N 35°29' E 139°49'0 0.0
2018-May-19 06:30N 35°29' E 139°49'0 0.0
2018-May-19 06:00N 35°29' E 139°49'0 0.1
2018-May-19 05:30N 35°29' E 139°49'0 0.1
2018-May-19 05:01N 35°29' E 139°49'5 9.0
2018-May-19 04:29N 35°34' E 139°51'510.4
2018-May-19 04:01N 35°37' E 139°56'2 0.4
2018-May-18 21:23N 35°38' E 139°58'4 9.7
2018-May-18 20:59N 35°35' E 139°55'0 0.0
2018-May-18 14:49N 35°35' E 139°55'0 0.1
2018-May-18 14:29N 35°35' E 139°55'3 6.7
2018-May-18 14:00N 35°33' E 139°58'5 1.0
2018-May-18 09:12N 35°30' E 140°02'1 6.5
2018-May-18 09:00N 35°30' E 140°01'1 2.4
2018-May-18 08:30N 35°31' E 139°60'0 0.9
2018-May-18 07:59N 35°32' E 139°59'0 0.0
2018-May-18 07:29N 35°32' E 139°59'0 0.0
2018-May-18 06:56N 35°32' E 139°59'0 0.0
2018-May-18 06:26N 35°32' E 139°59'0 0.0
2018-May-18 05:59N 35°32' E 139°59'0 0.0
2018-May-18 05:29N 35°32' E 139°59'0 0.0
2018-May-18 04:56N 35°32' E 139°59'2 4.1
2018-May-18 04:30N 35°33' E 139°59'610.0
2018-May-18 03:52N 35°40' E 139°57'2 0.4
2018-May-17 22:53N 35°38' E 139°58'4 9.4
2018-May-17 22:30N 35°35' E 139°55'1 0.8
2018-May-17 21:50N 35°35' E 139°55'0 0.0
2018-May-17 21:29N 35°35' E 139°55'0 0.0
2018-May-17 20:59N 35°35' E 139°55'0 0.0
2018-May-17 20:26N 35°35' E 139°55'0 0.0
2018-May-17 19:47N 35°35' E 139°55'0 0.0
2018-May-17 19:29N 35°35' E 139°55'0 0.0
2018-May-17 18:59N 35°35' E 139°55'0 0.0
2018-May-17 18:29N 35°35' E 139°55'0 0.0
2018-May-17 17:50N 35°35' E 139°55'0 0.0
2018-May-17 17:29N 35°35' E 139°55'0 0.1
2018-May-17 16:41N 35°35' E 139°55'0 0.0
2018-May-17 16:29N 35°35' E 139°55'0 0.0
2018-May-17 15:53N 35°35' E 139°55'0 0.0
2018-May-17 15:29N 35°35' E 139°55'0 0.0
2018-May-17 13:17N 35°35' E 139°55'1 4.2
2018-May-17 13:00N 35°34' E 139°56'610.4
2018-May-17 12:26N 35°30' E 140°01'0 0.0
2018-May-17 08:18N 35°30' E 140°01'2 4.9
2018-May-17 07:57N 35°31' E 139°60'0 0.4
2018-May-17 07:12N 35°31' E 139°60'0 0.0
2018-May-17 06:54N 35°31' E 139°60'0 0.3
2018-May-17 06:30N 35°31' E 139°60'3 6.5
2018-May-17 06:00N 35°32' E 139°56'4 8.9
2018-May-17 05:30N 35°36' E 139°57'2 0.5
2018-May-17 00:47N 35°38' E 139°58'3 9.5
2018-May-17 00:30N 35°36' E 139°56'1 2.7
2018-May-17 00:00N 35°35' E 139°55'0 0.0
2018-May-16 23:30N 35°35' E 139°55'0 0.0
2018-May-16 23:00N 35°35' E 139°55'0 0.0
2018-May-16 22:27N 35°35' E 139°55'0 0.0
2018-May-16 22:00N 35°35' E 139°55'0 0.0
2018-May-16 21:30N 35°35' E 139°55'0 0.0
2018-May-16 20:54N 35°35' E 139°55'0 0.0
2018-May-16 20:30N 35°35' E 139°55'0 0.0
2018-May-16 20:00N 35°35' E 139°55'0 0.0
2018-May-16 19:30N 35°35' E 139°55'0 0.0
2018-May-16 19:00N 35°35' E 139°55'0 0.0
2018-May-16 18:30N 35°35' E 139°55'0 0.0
2018-May-16 18:00N 35°35' E 139°55'0 0.0
2018-May-16 17:30N 35°35' E 139°55'0 0.0
2018-May-16 16:57N 35°35' E 139°55'0 0.0
2018-May-16 16:30N 35°35' E 139°55'0 0.0
2018-May-16 16:00N 35°35' E 139°55'0 0.0
2018-May-16 15:30N 35°35' E 139°55'0 0.0
2018-May-16 14:57N 35°35' E 139°55'0 0.0
2018-May-16 14:30N 35°35' E 139°55'0 0.0
2018-May-16 13:54N 35°35' E 139°55'0 0.0
2018-May-16 13:27N 35°35' E 139°55'3 5.0
2018-May-16 12:51N 35°33' E 139°56'410.8
2018-May-16 12:29N 35°30' E 139°60'1 0.2
2018-May-16 06:16N 35°29' E 140°01'1 4.6
2018-May-16 06:00N 35°29' E 139°60'4 7.6
2018-May-16 05:31N 35°29' E 139°55'1 2.7
2018-May-16 05:00N 35°30' E 139°56'4 6.9
2018-May-16 04:27N 35°31' E 140°01'2 3.2
2018-May-16 03:59N 35°31' E 140°03'0 0.0
2018-May-16 02:35N 35°31' E 140°03'0 0.0
2018-May-16 02:29N 35°31' E 140°03'0 0.0
2018-May-15 20:59N 35°31' E 140°02'4 6.6
2018-May-15 20:26N 35°31' E 139°58'3 5.7
2018-May-15 19:58N 35°30' E 139°55'0 0.0
2018-May-15 19:28N 35°30' E 139°55'0 0.0
2018-May-15 18:58N 35°30' E 139°55'0 0.0
2018-May-15 18:22N 35°30' E 139°55'0 0.0
2018-May-15 17:58N 35°30' E 139°55'0 0.0
2018-May-15 17:28N 35°30' E 139°55'0 0.0
2018-May-15 16:52N 35°30' E 139°55'0 0.0
2018-May-15 16:28N 35°30' E 139°55'0 0.0
2018-May-15 15:58N 35°30' E 139°55'0 0.0
2018-May-15 15:28N 35°30' E 139°55'0 0.0
2018-May-15 14:55N 35°30' E 139°55'0 0.0
2018-May-15 14:25N 35°30' E 139°55'0 0.0
2018-May-15 13:58N 35°30' E 139°55'0 0.0
2018-May-15 13:19N 35°30' E 139°55'0 0.0
2018-May-15 12:58N 35°30' E 139°55'0 0.0
2018-May-15 12:28N 35°30' E 139°55'0 0.0
2018-May-15 11:58N 35°30' E 139°55'0 0.0
2018-May-15 11:28N 35°30' E 139°55'0 0.1
2018-May-15 10:58N 35°30' E 139°55'0 0.0
2018-May-15 10:22N 35°30' E 139°55'0 0.0
2018-May-15 09:55N 35°30' E 139°55'0 0.0
2018-May-15 09:28N 35°30' E 139°55'0 0.0
2018-May-15 08:55N 35°30' E 139°55'0 0.0
2018-May-15 08:25N 35°30' E 139°55'0 0.0
2018-May-15 07:55N 35°30' E 139°55'0 0.0
2018-May-15 07:28N 35°30' E 139°55'0 0.0
2018-May-15 06:58N 35°30' E 139°55'0 0.0
2018-May-15 06:28N 35°30' E 139°55'0 0.1
2018-May-15 05:55N 35°30' E 139°55'0 0.0
2018-May-15 05:25N 35°30' E 139°55'0 0.0
2018-May-15 04:58N 35°30' E 139°55'0 0.0
2018-May-15 04:28N 35°30' E 139°55'0 0.0
2018-May-15 03:58N 35°30' E 139°55'0 0.0
2018-May-15 03:25N 35°30' E 139°55'0 0.0
2018-May-15 02:58N 35°30' E 139°55'0 0.0
2018-May-15 02:28N 35°30' E 139°55'0 0.1
2018-May-15 01:55N 35°30' E 139°55'0 0.0
2018-May-15 01:28N 35°30' E 139°55'0 0.1
2018-May-15 00:58N 35°30' E 139°55'0 0.1
2018-May-15 00:30N 35°30' E 139°55'4 8.6
2018-May-15 00:00N 35°31' E 139°60'2 4.4
2018-May-14 23:30N 35°31' E 140°03'0 0.0
2018-May-14 22:58N 35°31' E 140°03'0 0.0
2018-May-14 22:28N 35°31' E 140°03'0 0.0
2018-May-14 21:58N 35°31' E 140°03'0 0.0
2018-May-14 21:25N 35°31' E 140°03'0 0.0
2018-May-14 20:58N 35°31' E 140°03'0 0.0
2018-May-14 20:28N 35°31' E 140°03'0 0.0
2018-May-14 19:58N 35°31' E 140°03'0 0.0
2018-May-14 19:28N 35°31' E 140°03'0 0.0
2018-May-14 18:58N 35°31' E 140°03'0 0.0
2018-May-14 18:28N 35°31' E 140°03'0 0.0
2018-May-14 17:49N 35°31' E 140°03'0 0.0
2018-May-14 17:28N 35°31' E 140°03'0 0.0
2018-May-14 16:58N 35°31' E 140°03'0 0.0
2018-May-14 16:25N 35°31' E 140°03'0 0.0
2018-May-14 15:58N 35°31' E 140°03'0 0.0
2018-May-14 15:28N 35°31' E 140°03'0 0.0
2018-May-14 14:58N 35°31' E 140°03'0 0.0
2018-May-14 14:28N 35°31' E 140°03'0 0.0
2018-May-14 13:58N 35°31' E 140°03'0 0.0
2018-May-14 13:28N 35°31' E 140°03'0 0.0
2018-May-14 12:58N 35°31' E 140°03'0 0.0
2018-May-14 12:28N 35°31' E 140°03'0 0.0
2018-May-14 11:55N 35°31' E 140°03'0 0.0
2018-May-14 11:28N 35°31' E 140°03'0 0.0
2018-May-14 10:58N 35°31' E 140°03'0 0.0
2018-May-14 10:28N 35°31' E 140°03'0 0.0
2018-May-14 09:58N 35°31' E 140°03'0 0.0
2018-May-14 09:28N 35°31' E 140°03'0 0.0
2018-May-14 08:58N 35°31' E 140°03'0 0.0
2018-May-14 08:25N 35°31' E 140°03'0 0.0
2018-May-14 07:58N 35°31' E 140°03'0 0.0
2018-May-14 07:28N 35°31' E 140°03'0 0.0
2018-May-14 06:55N 35°31' E 140°03'0 0.9
2018-May-14 06:30N 35°31' E 140°02'4 8.2
2018-May-14 06:00N 35°31' E 139°57'2 3.3
2018-May-14 05:27N 35°30' E 139°55'0 0.1
2018-May-14 05:00N 35°30' E 139°55'0 0.0
2018-May-14 04:21N 35°30' E 139°55'0 0.0
2018-May-14 04:00N 35°30' E 139°55'0 0.0
2018-May-14 03:27N 35°30' E 139°55'0 0.0
2018-May-14 02:51N 35°30' E 139°55'0 0.1
2018-May-14 02:27N 35°30' E 139°55'1 2.1
2018-May-14 02:00N 35°31' E 139°56'611.3
2018-May-14 01:30N 35°36' E 139°58'4 6.8
2018-May-14 00:51N 35°41' E 139°56'0 0.0
2018-May-14 00:21N 35°41' E 139°56'0 0.0
2018-May-13 23:45N 35°41' E 139°56'0 0.0
2018-May-13 23:21N 35°41' E 139°56'0 0.0
2018-May-13 22:57N 35°41' E 139°56'0 0.0
2018-May-13 22:27N 35°41' E 139°56'0 0.0
2018-May-13 21:58N 35°41' E 139°56'2 4.6
2018-May-13 21:30N 35°39' E 139°58'4 8.1
2018-May-13 21:00N 35°36' E 139°55'0 0.2
2018-May-13 20:26N 35°35' E 139°55'0 0.0
2018-May-13 19:59N 35°35' E 139°55'0 0.0
2018-May-13 19:26N 35°35' E 139°55'0 0.0
2018-May-13 18:53N 35°35' E 139°55'0 0.1
2018-May-13 18:08N 35°35' E 139°55'0 0.0
2018-May-13 17:59N 35°35' E 139°55'0 0.1
2018-May-13 17:26N 35°35' E 139°55'0 0.0
2018-May-13 16:56N 35°35' E 139°55'0 0.0
2018-May-13 16:24N 35°35' E 139°55'0 0.0
2018-May-13 15:59N 35°35' E 139°55'0 0.0
2018-May-13 15:23N 35°35' E 139°55'0 0.1
2018-May-13 14:59N 35°35' E 139°55'0 0.0
2018-May-13 14:29N 35°35' E 139°55'0 0.2
2018-May-13 13:59N 35°35' E 139°55'0 0.1
2018-May-13 13:29N 35°35' E 139°55'0 0.0
2018-May-13 12:59N 35°35' E 139°55'0 0.0
2018-May-13 12:30N 35°35' E 139°55'0 0.0
2018-May-13 11:53N 35°35' E 139°55'0 0.1
2018-May-13 11:29N 35°35' E 139°55'0 0.1
2018-May-13 10:59N 35°35' E 139°55'0 0.0
2018-May-13 10:29N 35°35' E 139°55'0 0.1
2018-May-13 10:00N 35°35' E 139°55'3 6.5
2018-May-13 09:30N 35°33' E 139°58'4 8.6
2018-May-13 09:01N 35°31' E 140°02'0 0.1
2018-May-13 08:31N 35°31' E 140°02'0 0.0
2018-May-13 07:55N 35°31' E 140°02'0 0.0
2018-May-13 07:31N 35°31' E 140°02'0 0.0
2018-May-13 06:58N 35°31' E 140°02'0 0.0
2018-May-13 06:25N 35°31' E 140°02'0 0.0
2018-May-13 05:55N 35°31' E 140°02'0 0.0
2018-May-13 05:31N 35°31' E 140°02'0 0.1
2018-May-13 04:55N 35°31' E 140°03'1 3.1
2018-May-13 04:31N 35°32' E 140°02'0 0.2
2018-May-13 04:00N 35°32' E 140°02'0 0.0
2018-May-13 03:30N 35°32' E 140°02'0 0.0
2018-May-13 03:00N 35°32' E 140°02'0 0.0
2018-May-13 02:30N 35°32' E 140°02'0 0.0
2018-May-13 02:00N 35°32' E 140°02'0 0.0
2018-May-13 01:30N 35°32' E 140°02'0 0.0
2018-May-13 00:57N 35°32' E 140°02'2 4.6
2018-May-13 00:30N 35°33' E 139°60'5 9.0
2018-May-13 00:00N 35°38' E 139°59'3 5.3
2018-May-12 23:25N 35°41' E 139°59'0 0.0
2018-May-12 22:55N 35°41' E 139°59'0 0.0
2018-May-12 22:22N 35°41' E 139°59'0 0.0
2018-May-12 21:52N 35°41' E 139°59'0 0.0
2018-May-12 21:16N 35°41' E 139°59'0 0.0
2018-May-12 20:34N 35°41' E 139°59'0 0.0
2018-May-12 20:07N 35°41' E 139°59'0 0.0
2018-May-12 19:58N 35°41' E 139°59'0 0.0
2018-May-12 18:49N 35°41' E 139°59'0 0.0
2018-May-12 18:25N 35°41' E 139°59'0 0.0
2018-May-12 17:49N 35°41' E 139°59'0 0.0
2018-May-12 17:25N 35°41' E 139°59'  

Dump ship's entire track history